3J7

Greene County Regional Airport

Greensboro, Georgia, USA
METAR K3J7 210955Z AUTO 00000KT CLR 23/21 A2985 RMK AO2 PWINO
Observed Flight Rules
Jun-21 @ 09:55 UTC (17 minutes ago)
Clouds
  • Clear skies
Temperatures Readings
Current 23°C / 73°F
Dewpoint 21°C / 70°F
Humidity 89%
Altimeter 29.85" Hg
Pressure 1011 hPa
Elevation 206
METAR K3J7 210955Z AUTO 00000KT CLR 23/21 A2985 RMK AO2 PWINO
Observed Flight Rules
Jun-21 @ 09:55 UTC
(17 minutes ago)
Clouds
  • Clear skies
Temperature Dewpoint
23°C / 73°F 21°C / 70°F
Humidity Altimeter Pressure
89% 29.85" Hg 1011 hPa